This is the latest recevied weather packets stored in our database for station/object KD5UIG. If no packets are shown the sender has not sent any weather packets the latest 10 day(s).
| Time | Temp. | Humidity | Pressure | Rain* | Wind** | Luminosity | Snow |
|---|---|---|---|---|---|---|---|
| 1777669556 | 18.33° C | 59% | 1015.9 hPa | 0 mm | - | 221 W/m² | - |
| 1777668956 | 18.33° C | 59% | 1016.1 hPa | 0 mm | - | 213 W/m² | - |
| 1777667459 | 18.33° C | 58% | 1016.4 hPa | 0 mm | - | 202 W/m² | - |
| 1777666554 | 18.33° C | 57% | 1016.5 hPa | 0 mm | - | 167 W/m² | - |
| 1777664158 | 18.33° C | 59% | 1015.9 hPa | 0 mm | - | 250 W/m² | - |
| 1777663855 | 18.33° C | 57% | 1015.8 hPa | 0 mm | - | 278 W/m² | - |
| 1777663256 | 18.89° C | 57% | 1015.9 hPa | 0 mm | - | 260 W/m² | - |
| 1777662359 | 18.89° C | 54% | 1016.4 hPa | 0 mm | - | 237 W/m² | - |
| 1777662074 | 18.89° C | 54% | 1016.1 hPa | 0 mm | - | 345 W/m² | - |
| 1777661755 | 18.89° C | 54% | 1015.9 hPa | 0 mm | - | 436 W/m² | - |
| 1777660857 | 18.89° C | 53% | 1016.3 hPa | 0 mm | - | 341 W/m² | - |
| 1777658755 | 18.89° C | 55% | 1016.7 hPa | 0 mm | - | 436 W/m² | - |
| 1777657572 | 18.89° C | 58% | 1017 hPa | 0 mm | - | 482 W/m² | - |
| 1777656668 | 18.89° C | 62% | 1017.1 hPa | 0 mm | - | 587 W/m² | - |
| 1777655153 | 17.22° C | 69% | 1017.7 hPa | 0 mm | - | 480 W/m² | - |
| 1777654853 | 16.67° C | 69% | 1017.8 hPa | 0 mm | - | 468 W/m² | - |
| 1777653955 | 16.11° C | 72% | 1017.7 hPa | 0 mm | - | 332 W/m² | - |
| 1777652152 | 15.56° C | 75% | 1018.1 hPa | 0 mm | - | 271 W/m² | - |
| 1777649457 | 14.44° C | 76% | 1017.8 hPa | 0 mm | - | 91 W/m² | - |
| 1777648554 | 14.44° C | 75% | 1017.4 hPa | 0 mm | - | 67 W/m² | - |
| 1777647054 | 14.44° C | 75% | 1017.2 hPa | 0 mm | - | 123 W/m² | - |
| 1777640455 | 13.89° C | 84% | 1017.2 hPa | 0 mm | - | 23 W/m² | - |
| 1777639566 | 13.89° C | 84% | 1017 hPa | 0 mm | - | 12 W/m² | - |
| 1777639256 | 13.89° C | 84% | 1016.8 hPa | 0 mm | - | 12 W/m² | - |
| 1777637460 | 13.89° C | 85% | 1016 hPa | 0 mm | - | 16 W/m² | - |
* Rain latest hour (hover to see other rain measurements)
** Current wind speed in m/s (hover to see current wind gust speed)